Time;durP1;ratioP1;P1;durP2;ratioP2;P2;SDS_P1;SDS_P2;PMS_P1;PMS_P2;Temp;Humidity;BMP_temperature;BMP_pressure;BME280_temperature;BME280_humidity;BME280_pressure;Samples;Min_cycle;Max_cycle;Signal;HPM_P1;HPM_P2
2023/04/01 00:01:08;;;;;;;1.83;0.70;;;7.50;99.90;;;;;;4992667;28;20677;-90
2023/04/01 00:03:35;;;;;;;2.20;1.20;;;7.50;99.90;;;;;;4993033;28;20211;-89
2023/04/01 00:06:02;;;;;;;2.65;1.35;;;7.50;99.90;;;;;;4992978;28;20660;-89
2023/04/01 00:08:30;;;;;;;1.60;0.70;;;7.60;99.90;;;;;;4992285;28;20214;-89
2023/04/01 00:10:57;;;;;;;1.33;1.10;;;7.60;99.90;;;;;;4992437;28;20223;-90
2023/04/01 00:13:27;;;;;;;1.00;0.90;;;7.60;99.90;;;;;;4992792;28;20203;-90
2023/04/01 00:15:54;;;;;;;1.15;0.85;;;7.60;99.90;;;;;;4993696;28;20309;-89
2023/04/01 00:18:21;;;;;;;2.13;1.10;;;7.60;99.90;;;;;;4993687;28;20203;-90
2023/04/01 00:20:49;;;;;;;1.35;1.00;;;7.60;99.90;;;;;;4976613;28;20218;-90
2023/04/01 00:23:17;;;;;;;2.00;1.00;;;7.60;99.90;;;;;;4992622;28;20648;-90
2023/04/01 00:25:45;;;;;;;1.30;0.80;;;7.60;99.90;;;;;;4992270;28;20724;-89
2023/04/01 00:28:12;;;;;;;4.90;1.48;;;7.50;99.90;;;;;;4992693;28;20273;-90
2023/04/01 00:30:40;;;;;;;2.85;0.90;;;7.50;99.90;;;;;;4992091;28;20701;-90
2023/04/01 00:33:07;;;;;;;2.33;0.80;;;7.50;99.90;;;;;;4992449;28;20223;-90
2023/04/01 00:35:34;;;;;;;1.00;0.80;;;7.60;99.90;;;;;;4993213;28;20605;-89
2023/04/01 00:38:01;;;;;;;1.00;0.90;;;7.60;99.90;;;;;;4992263;28;20207;-91
2023/04/01 00:40:30;;;;;;;1.42;1.00;;;7.60;99.90;;;;;;4992573;28;20249;-90
2023/04/01 00:42:57;;;;;;;1.55;1.00;;;7.70;99.90;;;;;;4992733;28;20226;-90
2023/04/01 00:45:32;;;;;;;2.20;0.90;;;7.70;99.90;;;;;;4991807;28;20227;-91
2023/04/01 00:48:06;;;;;;;1.40;0.80;;;7.70;99.90;;;;;;4991806;28;20209;-90
2023/04/01 00:50:34;;;;;;;1.40;1.23;;;7.60;99.90;;;;;;4992887;28;20214;-90
2023/04/01 00:53:01;;;;;;;1.88;0.98;;;7.60;99.90;;;;;;4991993;28;20231;-90
2023/04/01 00:55:32;;;;;;;1.30;0.80;;;7.70;99.90;;;;;;4992744;28;20206;-91
2023/04/01 00:58:00;;;;;;;1.60;1.05;;;7.70;99.90;;;;;;4999012;28;20259;-92
2023/04/01 01:00:27;;;;;;;2.25;1.00;;;7.70;99.90;;;;;;5001244;28;20295;-91
2023/04/01 01:02:54;;;;;;;3.83;0.90;;;7.70;99.90;;;;;;4992719;28;20285;-91
2023/04/01 01:05:37;;;;;;;3.13;1.33;;;7.70;99.90;;;;;;4992630;28;20211;-91
2023/04/01 01:08:14;;;;;;;1.27;0.90;;;7.70;99.90;;;;;;4993270;28;20211;-91
2023/04/01 01:10:42;;;;;;;1.00;0.82;;;7.70;99.90;;;;;;4995455;28;20289;-91
2023/04/01 01:13:15;;;;;;;0.90;0.80;;;7.70;99.90;;;;;;4993478;28;20223;-91
2023/04/01 01:15:47;;;;;;;1.92;0.70;;;7.70;99.90;;;;;;4992524;28;20265;-90
2023/04/01 01:18:20;;;;;;;1.17;0.98;;;7.60;99.90;;;;;;4992296;28;20281;-91
2023/04/01 01:21:29;;;;;;;2.30;0.90;;;7.60;99.90;;;;;;4992296;28;20227;-91
2023/04/01 01:27:11;;;;;;;3.20;1.10;;;7.60;99.90;;;;;;5099519;22;20244;-69
2023/04/01 01:30:13;;;;;;;0.90;0.80;;;7.60;99.90;;;;;;5037008;28;20296;-69
2023/04/01 01:33:04;;;;;;;1.60;0.90;;;7.60;99.90;;;;;;5040461;28;20658;-69
2023/04/01 01:35:37;;;;;;;1.20;0.80;;;7.50;99.90;;;;;;5030921;28;20209;-69
2023/04/01 01:38:07;;;;;;;1.23;0.90;;;7.50;99.90;;;;;;5030684;28;20209;-69
2023/04/01 01:40:35;;;;;;;2.58;0.93;;;7.50;99.90;;;;;;5048048;28;20225;-69
2023/04/01 01:43:06;;;;;;;1.20;1.00;;;7.50;99.90;;;;;;5050984;28;20205;-69
2023/04/01 01:45:35;;;;;;;1.23;0.88;;;7.50;99.90;;;;;;5050604;28;20687;-69
2023/04/01 01:48:04;;;;;;;1.80;1.10;;;7.50;99.90;;;;;;5050806;28;20661;-68
2023/04/01 01:50:32;;;;;;;1.42;0.93;;;7.50;99.90;;;;;;5049559;28;20592;-69
2023/04/01 01:53:03;;;;;;;2.58;1.08;;;7.50;99.90;;;;;;5031125;28;20220;-69
2023/04/01 01:55:33;;;;;;;1.38;0.95;;;7.50;99.90;;;;;;5031074;28;20918;-69
2023/04/01 01:58:05;;;;;;;1.52;0.80;;;7.50;99.90;;;;;;5030788;28;20224;-69
2023/04/01 02:00:33;;;;;;;1.10;0.80;;;7.50;99.90;;;;;;5030363;28;20768;-70
2023/04/01 02:03:00;;;;;;;2.88;0.88;;;7.50;99.90;;;;;;5030666;28;20680;-69
2023/04/01 02:05:30;;;;;;;1.00;0.85;;;7.40;99.90;;;;;;5030388;28;20688;-69
2023/04/01 02:08:02;;;;;;;2.13;1.02;;;7.40;99.90;;;;;;5030553;28;20297;-69
2023/04/01 02:10:33;;;;;;;1.63;0.95;;;7.40;99.90;;;;;;5030371;28;20732;-69
2023/04/01 02:13:06;;;;;;;1.00;0.75;;;7.40;99.90;;;;;;5030562;28;20256;-69
2023/04/01 02:15:38;;;;;;;3.05;0.90;;;7.30;99.90;;;;;;5030088;28;20296;-69
2023/04/01 02:18:06;;;;;;;3.22;0.90;;;7.40;99.90;;;;;;5030274;28;20252;-69
2023/04/01 02:20:33;;;;;;;1.00;0.70;;;7.30;99.90;;;;;;5030043;28;20222;-69
2023/04/01 02:23:02;;;;;;;1.00;0.90;;;7.30;99.90;;;;;;5030335;28;20196;-69
2023/04/01 02:25:34;;;;;;;1.10;0.70;;;7.30;99.90;;;;;;5030087;28;20201;-69
2023/04/01 02:28:02;;;;;;;0.80;0.70;;;7.30;99.90;;;;;;5030254;28;20261;-69
2023/04/01 02:30:32;;;;;;;1.08;0.98;;;7.30;99.90;;;;;;5030014;28;20220;-69
2023/04/01 02:33:00;;;;;;;1.58;0.93;;;7.30;99.90;;;;;;5030171;28;20221;-69
2023/04/01 02:35:27;;;;;;;1.08;0.82;;;7.30;99.90;;;;;;5037830;28;20668;-70
2023/04/01 02:37:55;;;;;;;1.70;0.70;;;7.30;99.90;;;;;;5049614;28;20204;-70
2023/04/01 02:40:24;;;;;;;1.20;0.80;;;7.30;99.90;;;;;;5049895;28;20723;-70
2023/04/01 02:42:50;;;;;;;1.55;0.70;;;7.30;99.90;;;;;;5049795;28;20201;-70
2023/04/01 02:45:17;;;;;;;0.90;0.77;;;7.30;99.90;;;;;;5049889;28;20235;-70
2023/04/01 02:47:44;;;;;;;0.80;0.70;;;7.30;99.90;;;;;;5049677;28;20615;-70
2023/04/01 02:50:11;;;;;;;0.70;0.70;;;7.20;99.90;;;;;;5050210;28;20239;-70
2023/04/01 02:52:38;;;;;;;0.70;0.60;;;7.20;99.90;;;;;;5052827;28;20216;-70
2023/04/01 02:55:06;;;;;;;0.75;0.65;;;7.20;99.90;;;;;;5054940;28;20201;-70
2023/04/01 02:57:34;;;;;;;0.82;0.70;;;7.20;99.90;;;;;;5057117;28;20652;-70
2023/04/01 03:00:01;;;;;;;0.80;0.70;;;7.20;99.90;;;;;;5052006;28;20240;-70
2023/04/01 03:02:28;;;;;;;0.70;0.60;;;7.20;99.90;;;;;;5051263;28;20193;-70
2023/04/01 03:04:54;;;;;;;1.08;0.75;;;7.20;99.90;;;;;;5050149;28;20570;-70
2023/04/01 03:07:21;;;;;;;0.70;0.70;;;7.10;99.90;;;;;;5049527;28;20201;-70
2023/04/01 03:09:48;;;;;;;0.80;0.60;;;7.10;99.90;;;;;;5053342;28;20220;-70
2023/04/01 03:12:14;;;;;;;0.70;0.60;;;7.10;99.90;;;;;;5053595;28;20209;-70
2023/04/01 03:14:42;;;;;;;0.80;0.70;;;7.20;99.90;;;;;;5053657;28;20232;-70
2023/04/01 03:17:09;;;;;;;1.20;0.95;;;7.10;99.90;;;;;;5053606;28;20603;-70
2023/04/01 03:19:36;;;;;;;0.80;0.70;;;7.10;99.90;;;;;;5053108;28;20212;-70
2023/04/01 03:22:02;;;;;;;0.80;0.80;;;7.10;99.90;;;;;;5053499;28;20203;-70
2023/04/01 03:24:29;;;;;;;1.42;0.90;;;7.10;99.90;;;;;;5053534;28;20470;-70
2023/04/01 03:26:56;;;;;;;1.25;0.70;;;7.10;99.90;;;;;;5053195;28;20212;-70
2023/04/01 03:29:23;;;;;;;1.00;0.90;;;7.10;99.90;;;;;;5053417;28;20204;-70
2023/04/01 03:31:51;;;;;;;0.85;0.80;;;7.10;99.90;;;;;;5053194;28;20200;-71
2023/04/01 03:34:17;;;;;;;3.88;1.00;;;7.10;99.90;;;;;;5053339;28;20563;-70
2023/04/01 03:36:44;;;;;;;2.50;1.08;;;7.10;99.90;;;;;;5053006;28;20201;-70
2023/04/01 03:39:11;;;;;;;0.90;0.70;;;7.10;99.90;;;;;;5053145;28;20205;-70
2023/04/01 03:41:39;;;;;;;0.85;0.80;;;7.10;99.90;;;;;;5052861;28;20225;-70
2023/04/01 03:44:05;;;;;;;1.83;0.90;;;7.10;99.90;;;;;;5053366;28;20719;-70
2023/04/01 03:46:32;;;;;;;1.00;0.90;;;7.10;99.90;;;;;;5052987;28;20205;-70
2023/04/01 03:49:00;;;;;;;0.80;0.70;;;7.10;99.90;;;;;;5024926;28;20202;-70
2023/04/01 03:51:27;;;;;;;0.80;0.60;;;7.10;99.90;;;;;;5032865;28;20222;-70
2023/04/01 03:53:54;;;;;;;0.93;0.70;;;7.10;99.90;;;;;;5032947;28;20221;-70
2023/04/01 03:56:20;;;;;;;2.00;1.00;;;7.10;99.90;;;;;;5033200;28;20248;-69
2023/04/01 03:58:47;;;;;;;0.80;0.75;;;7.00;99.90;;;;;;5032768;28;20213;-70
2023/04/01 04:01:18;;;;;;;1.02;0.80;;;7.00;99.90;;;;;;5038384;28;20240;-70
2023/04/01 04:03:45;;;;;;;0.80;0.70;;;6.90;99.90;;;;;;5052957;28;20257;-70
2023/04/01 04:06:15;;;;;;;0.80;0.60;;;6.90;99.90;;;;;;5052729;28;20263;-70
2023/04/01 04:08:41;;;;;;;1.25;0.90;;;6.90;99.90;;;;;;5053938;28;20201;-70
2023/04/01 04:11:09;;;;;;;0.90;0.70;;;6.80;99.90;;;;;;5054261;28;20718;-70
2023/04/01 04:13:36;;;;;;;4.82;0.90;;;6.80;99.90;;;;;;5051909;28;20240;-70
2023/04/01 04:16:03;;;;;;;0.90;0.70;;;6.70;99.90;;;;;;5052594;28;20220;-70
2023/04/01 04:18:30;;;;;;;0.85;0.70;;;6.70;99.90;;;;;;5052128;28;20204;-69
2023/04/01 04:20:57;;;;;;;1.40;0.70;;;6.60;99.90;;;;;;5051175;28;20260;-70
2023/04/01 04:23:25;;;;;;;1.65;1.00;;;6.60;99.90;;;;;;5052276;28;20208;-70
2023/04/01 04:25:56;;;;;;;0.80;0.80;;;6.60;99.90;;;;;;5051976;28;20205;-70
2023/04/01 04:28:23;;;;;;;1.92;0.70;;;6.60;99.90;;;;;;5051903;28;20233;-70
2023/04/01 04:30:50;;;;;;;0.80;0.70;;;6.60;99.90;;;;;;5052189;28;20229;-70
2023/04/01 04:33:16;;;;;;;4.50;0.85;;;6.60;99.90;;;;;;5052273;28;20320;-70
2023/04/01 04:35:43;;;;;;;1.00;0.70;;;6.60;99.90;;;;;;5052046;28;20208;-70
2023/04/01 04:38:10;;;;;;;0.80;0.70;;;6.50;99.90;;;;;;5052037;28;20227;-70
2023/04/01 04:40:38;;;;;;;1.00;0.70;;;6.50;99.90;;;;;;5051693;28;20224;-70
2023/04/01 04:43:05;;;;;;;0.82;0.80;;;6.50;99.90;;;;;;5052171;28;20653;-70
2023/04/01 04:45:32;;;;;;;1.80;0.80;;;6.50;99.90;;;;;;5051813;28;20200;-70
2023/04/01 04:47:59;;;;;;;1.70;0.70;;;6.50;99.90;;;;;;5051552;28;20201;-70
2023/04/01 04:50:26;;;;;;;0.82;0.70;;;6.50;99.90;;;;;;5051722;28;20567;-70
2023/04/01 04:52:52;;;;;;;0.80;0.70;;;6.50;99.90;;;;;;5051686;28;20232;-70
2023/04/01 04:55:19;;;;;;;1.83;0.85;;;6.60;99.90;;;;;;5051681;28;20201;-70
2023/04/01 04:57:47;;;;;;;4.72;0.95;;;6.60;99.90;;;;;;5041996;28;20198;-70
2023/04/01 05:00:15;;;;;;;0.80;0.70;;;6.50;99.90;;;;;;5031654;28;20720;-70
2023/04/01 05:02:41;;;;;;;1.05;0.80;;;6.50;99.90;;;;;;5031709;28;20202;-70
2023/04/01 05:05:09;;;;;;;0.95;0.85;;;6.50;99.90;;;;;;5031628;28;20202;-70
2023/04/01 05:07:35;;;;;;;2.22;1.02;;;6.50;99.90;;;;;;5039290;28;20288;-70
2023/04/01 05:10:02;;;;;;;0.80;0.70;;;6.50;99.90;;;;;;5051385;28;20710;-70
2023/04/01 05:12:29;;;;;;;1.05;0.75;;;6.60;99.90;;;;;;5051328;28;20225;-70
2023/04/01 05:14:57;;;;;;;0.88;0.80;;;6.60;99.90;;;;;;5051517;28;20209;-70
2023/04/01 05:17:23;;;;;;;1.48;0.90;;;6.70;99.90;;;;;;5051868;28;20201;-70
2023/04/01 05:19:50;;;;;;;1.02;0.80;;;6.70;99.90;;;;;;5051794;28;20221;-70
2023/04/01 05:22:17;;;;;;;1.35;0.90;;;6.70;99.90;;;;;;5052398;28;20202;-70
2023/04/01 05:24:43;;;;;;;0.95;0.75;;;6.80;99.90;;;;;;5052381;28;20280;-70
2023/04/01 05:27:10;;;;;;;0.80;0.70;;;6.80;99.90;;;;;;5051776;28;20201;-70
2023/04/01 05:29:37;;;;;;;2.75;0.80;;;6.80;99.90;;;;;;5050792;28;20197;-70
2023/04/01 05:32:05;;;;;;;3.90;0.90;;;6.90;99.90;;;;;;5050805;28;20193;-70
2023/04/01 05:34:32;;;;;;;1.05;0.93;;;6.90;99.90;;;;;;5050917;28;20213;-70
2023/04/01 05:36:59;;;;;;;1.30;0.90;;;7.00;99.90;;;;;;5050912;28;20212;-70
2023/04/01 05:39:26;;;;;;;2.50;1.13;;;7.00;99.90;;;;;;5050412;28;20217;-70
2023/04/01 05:41:52;;;;;;;1.20;0.80;;;7.10;99.90;;;;;;5050614;28;20237;-70
2023/04/01 05:44:19;;;;;;;2.40;1.27;;;7.20;99.90;;;;;;5050814;28;20209;-70
2023/04/01 05:46:46;;;;;;;1.08;0.88;;;7.30;99.90;;;;;;5036420;28;20225;-70
2023/04/01 05:49:14;;;;;;;0.80;0.70;;;7.30;99.90;;;;;;5032526;28;20584;-70
2023/04/01 05:51:41;;;;;;;1.20;0.75;;;7.30;99.90;;;;;;5050561;28;20224;-70
2023/04/01 05:54:07;;;;;;;0.88;0.70;;;7.30;99.90;;;;;;5048983;28;20214;-70
2023/04/01 05:56:34;;;;;;;1.20;0.93;;;7.30;99.90;;;;;;5047062;28;20201;-70
2023/04/01 05:59:01;;;;;;;0.95;0.80;;;7.40;99.90;;;;;;5049882;28;20556;-70
2023/04/01 06:01:28;;;;;;;2.95;1.10;;;7.40;99.90;;;;;;5050230;28;20221;-70
2023/04/01 06:03:54;;;;;;;1.08;0.95;;;7.50;99.90;;;;;;5050009;28;20201;-70
2023/04/01 06:06:26;;;;;;;1.58;0.90;;;7.50;99.90;;;;;;5050422;28;20208;-70
2023/04/01 06:08:53;;;;;;;1.00;0.90;;;7.60;99.90;;;;;;5049046;28;20204;-71
2023/04/01 06:11:30;;;;;;;0.80;0.73;;;7.70;99.90;;;;;;5030373;28;20241;-71
2023/04/01 06:14:12;;;;;;;1.60;1.00;;;7.80;99.90;;;;;;5030538;28;20464;-71
2023/04/01 06:16:55;;;;;;;1.60;0.90;;;7.80;99.90;;;;;;5029193;28;21094;-70
2023/04/01 06:19:36;;;;;;;0.80;0.70;;;7.90;99.90;;;;;;5029962;28;20634;-70
2023/04/01 06:22:23;;;;;;;1.17;1.08;;;8.00;99.90;;;;;;5030191;28;20217;-70
2023/04/01 06:25:16;;;;;;;0.95;0.80;;;8.00;99.90;;;;;;5030415;28;20293;-69
2023/04/01 06:27:56;;;;;;;0.90;0.80;;;8.00;99.90;;;;;;5030105;28;20209;-70
2023/04/01 06:30:35;;;;;;;1.45;0.70;;;8.00;99.90;;;;;;5030150;28;20213;-70
2023/04/01 06:33:18;;;;;;;0.77;0.70;;;8.00;99.90;;;;;;5029945;28;20217;-70
2023/04/01 06:36:05;;;;;;;0.80;0.70;;;8.00;99.90;;;;;;5030017;28;20213;-69
2023/04/01 06:39:01;;;;;;;1.00;0.80;;;8.00;99.90;;;;;;5036566;28;20226;-69
2023/04/01 06:42:06;;;;;;;0.77;0.70;;;8.10;99.90;;;;;;5049815;28;20332;-69
2023/04/01 06:44:42;;;;;;;1.33;0.70;;;8.10;99.90;;;;;;5044005;28;20193;-69
2023/04/01 06:47:24;;;;;;;1.20;0.90;;;8.10;99.90;;;;;;5048940;28;20197;-69
2023/04/01 06:50:02;;;;;;;1.73;0.80;;;8.20;99.90;;;;;;5024613;28;20229;-70
2023/04/01 06:52:42;;;;;;;1.55;0.80;;;8.20;99.90;;;;;;5025720;28;20208;-69
2023/04/01 06:55:24;;;;;;;0.80;0.73;;;8.10;99.90;;;;;;5027241;28;20566;-71
2023/04/01 06:57:54;;;;;;;1.05;0.77;;;8.00;99.90;;;;;;5026808;28;20234;-70
2023/04/01 07:00:27;;;;;;;2.83;1.23;;;8.00;99.90;;;;;;5027336;28;20229;-70
2023/04/01 07:03:03;;;;;;;1.10;0.80;;;8.10;99.90;;;;;;5030555;28;20665;-69
2023/04/01 07:05:33;;;;;;;3.13;0.70;;;8.10;99.90;;;;;;5049878;28;20208;-69
2023/04/01 07:08:05;;;;;;;1.45;0.80;;;8.20;99.90;;;;;;5049375;28;20201;-70
2023/04/01 07:10:39;;;;;;;0.80;0.70;;;8.30;99.90;;;;;;5049626;28;20221;-70
2023/04/01 07:13:10;;;;;;;1.13;0.90;;;8.30;99.90;;;;;;5049553;28;20221;-70
2023/04/01 07:15:41;;;;;;;0.90;0.70;;;8.30;99.90;;;;;;5049596;28;20672;-70
2023/04/01 07:18:16;;;;;;;2.35;1.33;;;8.40;99.90;;;;;;5049338;28;20197;-70
2023/04/01 07:20:42;;;;;;;1.45;0.90;;;8.40;99.90;;;;;;5049507;28;20228;-70
2023/04/01 07:23:20;;;;;;;0.90;0.77;;;8.40;99.90;;;;;;5049075;28;20200;-70
2023/04/01 07:25:53;;;;;;;1.30;0.90;;;8.40;99.90;;;;;;5068293;23;20230;-90
2023/04/01 07:30:59;;;;;;;2.85;0.98;;;8.40;99.90;;;;;;4998041;28;20278;-72
2023/04/01 07:33:34;;;;;;;3.38;1.05;;;8.40;99.90;;;;;;4991410;28;20234;-74
2023/04/01 07:36:07;;;;;;;1.55;0.85;;;8.30;99.90;;;;;;5010098;28;20202;-74
2023/04/01 07:38:48;;;;;;;1.00;0.80;;;8.40;99.90;;;;;;5012985;28;20203;-74
2023/04/01 07:41:28;;;;;;;2.10;0.70;;;8.40;99.90;;;;;;4999769;28;20241;-75
2023/04/01 07:44:02;;;;;;;1.35;0.85;;;8.40;99.90;;;;;;5010844;28;20203;-74
2023/04/01 07:46:49;;;;;;;1.98;0.82;;;8.40;99.90;;;;;;5012395;28;20208;-76
2023/04/01 07:49:21;;;;;;;0.80;0.70;;;8.40;99.90;;;;;;4984995;28;20214;-77
2023/04/01 07:51:58;;;;;;;1.70;0.90;;;8.40;99.90;;;;;;4992508;28;20663;-75
2023/04/01 07:54:39;;;;;;;1.02;0.70;;;8.40;99.90;;;;;;4993502;28;20225;-76
2023/04/01 07:57:13;;;;;;;1.55;1.02;;;8.50;99.90;;;;;;5007304;28;20206;-76
2023/04/01 07:59:51;;;;;;;0.80;0.70;;;8.50;99.90;;;;;;5016952;28;20323;-76
2023/04/01 08:02:33;;;;;;;0.90;0.80;;;8.50;99.90;;;;;;5016287;28;20209;-75
2023/04/01 08:05:09;;;;;;;1.60;0.75;;;8.60;99.90;;;;;;5015476;28;20208;-74
2023/04/01 08:07:46;;;;;;;4.15;1.48;;;8.70;99.90;;;;;;5015124;28;20318;-74
2023/04/01 08:10:20;;;;;;;0.90;0.80;;;8.70;99.90;;;;;;5011845;28;20222;-75
2023/04/01 08:13:00;;;;;;;0.88;0.88;;;8.80;99.90;;;;;;4995813;28;20293;-73
2023/04/01 08:15:33;;;;;;;0.90;0.80;;;8.80;99.90;;;;;;4995162;28;20222;-74
2023/04/01 08:18:11;;;;;;;1.63;0.95;;;8.80;99.90;;;;;;4994497;28;20227;-73
2023/04/01 08:20:43;;;;;;;1.92;1.00;;;8.80;99.90;;;;;;4995215;28;20214;-73
2023/04/01 08:23:15;;;;;;;0.85;0.77;;;8.70;99.90;;;;;;4993964;28;20304;-74
2023/04/01 08:25:49;;;;;;;1.05;0.80;;;8.70;99.90;;;;;;4994599;28;20727;-74
2023/04/01 08:28:24;;;;;;;1.42;1.00;;;8.70;99.90;;;;;;4987412;28;20582;-73
2023/04/01 08:30:56;;;;;;;2.20;1.10;;;8.70;99.90;;;;;;4995024;28;20245;-73
2023/04/01 08:33:26;;;;;;;1.73;1.10;;;8.70;99.90;;;;;;4995710;28;20656;-74
2023/04/01 08:35:59;;;;;;;0.70;0.60;;;8.70;99.90;;;;;;4994660;28;20650;-74
2023/04/01 08:38:31;;;;;;;1.55;1.42;;;8.70;99.90;;;;;;4994983;28;20195;-74
2023/04/01 08:41:12;;;;;;;1.23;1.00;;;8.60;99.90;;;;;;4994177;28;20258;-74
2023/04/01 08:44:00;;;;;;;1.15;0.85;;;8.50;99.90;;;;;;4995310;28;20195;-73
2023/04/01 08:46:57;;;;;;;1.20;0.80;;;8.50;99.90;;;;;;4987770;28;20205;-74
2023/04/01 08:49:53;;;;;;;0.80;0.70;;;8.40;99.90;;;;;;4994482;28;20295;-74
2023/04/01 08:52:31;;;;;;;0.80;0.70;;;8.40;99.90;;;;;;5006703;28;20198;-73
2023/04/01 08:57:38;;;;;;;0.85;0.70;;;8.20;99.90;;;;;;5010622;28;20221;-73
2023/04/01 09:00:22;;;;;;;1.13;0.88;;;8.10;99.90;;;;;;5012237;28;20710;-74
2023/04/01 09:03:22;;;;;;;0.70;0.60;;;8.00;99.90;;;;;;5012822;28;20206;-75
2023/04/01 09:06:13;;;;;;;0.90;0.80;;;8.00;99.90;;;;;;5010794;28;20202;-75
2023/04/01 09:08:51;;;;;;;1.15;0.85;;;8.10;99.90;;;;;;5004139;28;20284;-75
2023/04/01 09:11:32;;;;;;;1.02;0.70;;;8.30;99.90;;;;;;4999377;28;20487;-75
2023/04/01 09:14:21;;;;;;;1.00;0.77;;;8.50;99.90;;;;;;5009642;28;20602;-74
2023/04/01 09:17:13;;;;;;;1.30;0.80;;;8.80;99.90;;;;;;5012807;28;20211;-75
2023/04/01 09:19:58;;;;;;;1.17;0.70;;;8.90;99.90;;;;;;5007108;28;20249;-72
2023/04/01 09:22:51;;;;;;;1.00;0.90;;;9.10;99.90;;;;;;5005813;28;20276;-75
2023/04/01 09:25:49;;;;;;;1.10;0.70;;;9.30;99.90;;;;;;5006891;28;20203;-74
2023/04/01 09:28:19;;;;;;;0.80;0.70;;;9.40;99.90;;;;;;5002352;28;20202;-73
2023/04/01 09:31:06;;;;;;;1.67;0.75;;;9.70;99.90;;;;;;5011003;28;20264;-74
2023/04/01 09:34:08;;;;;;;1.00;0.70;;;10.10;99.90;;;;;;5006151;28;20202;-73
2023/04/01 09:36:46;;;;;;;0.80;0.70;;;10.20;99.90;;;;;;5006083;28;20334;-75
2023/04/01 09:39:32;;;;;;;0.90;0.70;;;10.00;99.90;;;;;;5011145;28;20271;-75
2023/04/01 09:42:27;;;;;;;1.00;0.70;;;9.80;99.90;;;;;;5011442;28;20214;-74
2023/04/01 09:44:59;;;;;;;1.10;0.70;;;9.50;99.90;;;;;;5012298;28;20210;-74
2023/04/01 09:47:45;;;;;;;0.80;0.60;;;9.30;99.90;;;;;;5003304;28;20206;-73
2023/04/01 09:50:30;;;;;;;0.80;0.70;;;9.20;99.90;;;;;;5011761;28;20575;-74
2023/04/01 09:53:10;;;;;;;1.00;0.68;;;9.20;99.90;;;;;;5011929;28;20276;-74
2023/04/01 09:56:12;;;;;;;0.70;0.60;;;9.10;99.90;;;;;;5012967;28;20218;-74
2023/04/01 09:59:12;;;;;;;0.90;0.70;;;9.10;99.90;;;;;;5008559;28;20198;-75
2023/04/01 10:01:58;;;;;;;0.90;0.73;;;9.10;99.90;;;;;;4983134;28;20227;-76
2023/04/01 10:04:51;;;;;;;0.80;0.60;;;9.00;99.90;;;;;;5004807;28;20547;-75
2023/04/01 10:07:51;;;;;;;1.00;0.70;;;8.90;99.90;;;;;;5012585;28;20214;-74
2023/04/01 10:11:05;;;;;;;0.98;0.70;;;9.00;99.90;;;;;;5009766;28;20349;-74
2023/04/01 10:14:06;;;;;;;0.70;0.60;;;9.10;99.90;;;;;;5014167;28;20761;-75
2023/04/01 10:16:58;;;;;;;0.75;0.70;;;9.20;99.90;;;;;;5010862;28;20201;-75
2023/04/01 10:19:56;;;;;;;0.75;0.60;;;9.20;99.90;;;;;;5003644;28;20214;-75
2023/04/01 10:23:01;;;;;;;0.98;0.88;;;9.20;99.90;;;;;;4979378;28;20587;-74
2023/04/01 10:25:54;;;;;;;0.80;0.70;;;9.30;99.90;;;;;;4952058;29;20580;-74
2023/04/01 10:29:02;;;;;;;2.28;0.70;;;9.40;99.90;;;;;;4949380;29;20216;-74
2023/04/01 10:31:46;;;;;;;0.70;0.60;;;9.70;99.90;;;;;;4999425;28;20226;-72
2023/04/01 10:34:53;;;;;;;0.85;0.70;;;9.80;99.90;;;;;;5010472;28;20226;-74
2023/04/01 10:37:43;;;;;;;1.42;0.80;;;10.00;99.90;;;;;;5011062;28;20202;-74
2023/04/01 10:40:46;;;;;;;0.80;0.70;;;10.10;99.90;;;;;;5011731;28;20230;-74
2023/04/01 10:43:44;;;;;;;0.93;0.70;;;10.30;99.90;;;;;;5010872;28;20210;-74
2023/04/01 10:46:56;;;;;;;1.70;0.80;;;10.50;99.90;;;;;;5010160;28;20229;-72
2023/04/01 10:49:47;;;;;;;1.10;0.70;;;10.40;99.90;;;;;;5003422;28;20209;-75
2023/04/01 10:52:50;;;;;;;0.80;0.60;;;10.30;99.90;;;;;;5010556;28;20618;-73
2023/04/01 10:55:37;;;;;;;0.90;0.70;;;10.10;99.90;;;;;;5010100;28;20225;-74
2023/04/01 10:58:39;;;;;;;0.77;0.60;;;10.10;99.90;;;;;;5013803;28;20210;-73
2023/04/01 11:01:41;;;;;;;0.80;0.70;;;10.10;99.90;;;;;;5013575;28;20320;-75
2023/04/01 11:04:51;;;;;;;2.08;0.80;;;10.20;99.90;;;;;;5011902;28;20217;-75
2023/04/01 11:07:42;;;;;;;0.90;0.65;;;10.00;99.90;;;;;;5011596;28;20281;-75
2023/04/01 11:10:55;;;;;;;0.90;0.70;;;10.00;99.90;;;;;;5011816;28;20226;-73
2023/04/01 11:13:53;;;;;;;0.70;0.60;;;10.00;99.90;;;;;;5010841;28;20225;-73
2023/04/01 11:16:48;;;;;;;0.80;0.73;;;9.90;99.90;;;;;;5009928;28;20230;-75
2023/04/01 11:19:57;;;;;;;0.80;0.70;;;9.90;99.90;;;;;;5002474;28;20214;-70
2023/04/01 11:22:52;;;;;;;0.77;0.60;;;9.90;99.90;;;;;;5009406;28;20215;-74
2023/04/01 11:25:30;;;;;;;0.70;0.60;;;10.00;99.90;;;;;;5009518;28;20207;-74
2023/04/01 11:28:36;;;;;;;0.90;0.70;;;10.20;99.90;;;;;;5011133;28;20206;-74
2023/04/01 11:31:21;;;;;;;0.80;0.60;;;10.30;99.90;;;;;;4986310;28;20226;-75
2023/04/01 11:33:58;;;;;;;0.80;0.60;;;10.50;99.90;;;;;;5013026;28;20587;-74
2023/04/01 11:36:40;;;;;;;0.90;0.60;;;10.60;99.90;;;;;;5012915;28;20587;-73
2023/04/01 11:39:23;;;;;;;0.80;0.60;;;10.80;99.90;;;;;;5013087;28;20206;-72
2023/04/01 11:41:58;;;;;;;0.80;0.60;;;10.80;99.90;;;;;;5014227;28;20586;-73
2023/04/01 11:44:28;;;;;;;0.80;0.60;;;10.70;99.90;;;;;;5015425;28;20613;-72
2023/04/01 11:47:09;;;;;;;0.77;0.68;;;10.60;99.90;;;;;;5015629;28;20210;-73
2023/04/01 11:49:50;;;;;;;3.10;0.80;;;10.60;99.90;;;;;;5011546;28;20202;-73
2023/04/01 11:52:55;;;;;;;0.80;0.60;;;10.70;99.90;;;;;;5021881;28;20214;-73
2023/04/01 11:55:32;;;;;;;0.80;0.60;;;10.70;99.90;;;;;;5007702;28;20241;-74
2023/04/01 11:58:22;;;;;;;0.70;0.60;;;10.80;99.90;;;;;;5017107;28;20260;-72
2023/04/01 12:01:26;;;;;;;0.80;0.60;;;10.80;99.90;;;;;;5009245;28;20226;-73
2023/04/01 12:04:12;;;;;;;1.30;0.70;;;10.60;99.90;;;;;;5010104;28;20221;-73
2023/04/01 12:06:50;;;;;;;1.00;0.65;;;10.50;99.90;;;;;;5004358;28;20213;-74
2023/04/01 12:09:26;;;;;;;0.73;0.60;;;10.40;99.90;;;;;;5015825;28;20203;-73
2023/04/01 12:12:04;;;;;;;0.80;0.70;;;10.30;99.90;;;;;;5014337;28;20213;-74
2023/04/01 12:14:38;;;;;;;0.77;0.60;;;10.40;99.90;;;;;;5015115;28;20214;-74
2023/04/01 12:17:13;;;;;;;0.75;0.60;;;10.50;99.90;;;;;;5014208;28;20209;-73
2023/04/01 12:19:47;;;;;;;0.80;0.60;;;10.60;99.90;;;;;;5014477;28;20213;-74
2023/04/01 12:22:35;;;;;;;0.80;0.70;;;10.60;99.90;;;;;;5022301;28;20209;-73
2023/04/01 12:25:17;;;;;;;1.48;0.93;;;10.70;99.90;;;;;;5014269;28;20247;-73
2023/04/01 12:27:54;;;;;;;0.80;0.63;;;10.80;99.90;;;;;;5014468;28;20214;-73
2023/04/01 12:30:54;;;;;;;0.80;0.70;;;11.00;99.90;;;;;;5006080;28;20760;-74
2023/04/01 12:33:56;;;;;;;1.00;0.73;;;11.30;99.90;;;;;;5022198;28;20211;-74
2023/04/01 12:36:41;;;;;;;0.80;0.70;;;11.40;99.90;;;;;;5020973;28;20222;-74
2023/04/01 12:39:39;;;;;;;0.80;0.65;;;11.70;99.90;;;;;;5007912;28;20301;-73
2023/04/01 12:42:29;;;;;;;0.98;0.77;;;12.00;99.90;;;;;;5009141;28;20915;-74
2023/04/01 12:45:16;;;;;;;0.80;0.60;;;12.20;99.90;;;;;;5009189;28;20297;-73
2023/04/01 12:48:17;;;;;;;0.80;0.60;;;12.50;99.90;;;;;;5017911;28;20287;-72
2023/04/01 12:51:09;;;;;;;0.80;0.70;;;12.20;99.90;;;;;;5008470;28;20240;-72
2023/04/01 12:54:02;;;;;;;0.80;0.70;;;12.20;99.90;;;;;;5000719;28;20206;-71
2023/04/01 12:56:44;;;;;;;0.80;0.60;;;12.20;99.90;;;;;;5008564;28;20332;-72
2023/04/01 12:59:29;;;;;;;0.80;0.70;;;12.30;99.90;;;;;;5008604;28;20297;-72
2023/04/01 13:02:13;;;;;;;0.90;0.70;;;12.40;99.90;;;;;;5008694;28;20732;-72
2023/04/01 13:05:24;;;;;;;0.80;0.60;;;12.30;99.90;;;;;;5011365;28;20208;-72
2023/04/01 13:08:22;;;;;;;0.80;0.60;;;12.70;99.90;;;;;;4998631;28;20293;-72
2023/04/01 13:11:07;;;;;;;0.77;0.60;;;12.30;99.90;;;;;;5003088;28;20292;-71
2023/04/01 13:14:06;;;;;;;0.80;0.70;;;12.30;99.90;;;;;;5000285;28;20214;-72
2023/04/01 13:16:39;;;;;;;0.77;0.60;;;12.20;99.90;;;;;;4989971;28;20226;-72
2023/04/01 13:19:15;;;;;;;0.80;0.70;;;12.10;99.90;;;;;;5004910;28;20284;-72
2023/04/01 13:21:54;;;;;;;0.80;0.70;;;12.10;99.90;;;;;;5001672;28;20339;-72
2023/04/01 13:24:32;;;;;;;0.90;0.80;;;12.30;99.90;;;;;;5017648;28;20280;-72
2023/04/01 13:27:04;;;;;;;0.80;0.70;;;11.90;99.90;;;;;;5010672;28;20213;-72
2023/04/01 13:29:37;;;;;;;0.90;0.70;;;11.50;99.90;;;;;;5009831;28;20617;-72
2023/04/01 13:32:20;;;;;;;0.80;0.60;;;11.50;99.90;;;;;;5010770;28;20214;-72
2023/04/01 13:35:04;;;;;;;0.80;0.60;;;11.50;99.90;;;;;;5010540;28;20234;-72
2023/04/01 13:37:49;;;;;;;0.80;0.60;;;11.40;99.90;;;;;;5010986;28;20232;-70
2023/04/01 13:40:37;;;;;;;0.90;0.70;;;11.20;99.90;;;;;;5010887;28;20320;-72
2023/04/01 13:43:09;;;;;;;0.80;0.60;;;11.10;99.90;;;;;;5010521;28;20224;-72
2023/04/01 13:45:56;;;;;;;0.77;0.60;;;11.20;99.90;;;;;;5000998;28;20199;-71
2023/04/01 13:48:36;;;;;;;0.80;0.70;;;11.20;99.90;;;;;;5008256;28;20214;-72
2023/04/01 13:51:18;;;;;;;0.80;0.70;;;11.00;99.90;;;;;;5007679;28;20252;-72
2023/04/01 13:54:06;;;;;;;1.88;0.60;;;11.00;99.90;;;;;;5001637;28;20593;-73
2023/04/01 13:56:43;;;;;;;1.20;1.05;;;11.10;99.90;;;;;;5007426;28;20309;-73